createdAt,value
2018-03-18T00:01:15.997Z,97077.88
2018-03-18T00:03:43.611Z,97058.64
2018-03-18T00:06:11.285Z,97059.17
2018-03-18T00:08:38.934Z,97065.50
2018-03-18T00:11:06.965Z,97061.54
2018-03-18T00:13:34.564Z,97071.92
2018-03-18T00:16:02.200Z,97060.16
2018-03-18T00:18:29.842Z,97074.27
2018-03-18T00:20:57.444Z,97057.88
2018-03-18T00:23:25.396Z,97047.05
2018-03-18T00:25:52.965Z,97028.31
2018-03-18T00:28:20.558Z,97032.53
2018-03-18T00:30:48.256Z,97055.28
2018-03-18T00:33:15.835Z,97055.11
2018-03-18T00:35:44.814Z,97051.39
2018-03-18T00:38:12.706Z,97043.27
2018-03-18T00:40:40.284Z,97029.34
2018-03-18T00:43:07.869Z,97040.58
2018-03-18T00:45:35.480Z,97033.99
2018-03-18T00:48:03.056Z,97040.23
2018-03-18T00:50:30.624Z,97041.17
2018-03-18T00:52:58.603Z,97014.78
2018-03-18T00:55:26.186Z,97013.25
2018-03-18T00:57:53.771Z,97006.70
2018-03-18T01:00:21.684Z,96995.80
2018-03-18T01:02:50.232Z,96995.91
2018-03-18T01:05:17.841Z,96991.31
2018-03-18T01:07:45.531Z,96983.44
2018-03-18T01:10:13.183Z,96987.95
2018-03-18T01:12:40.898Z,97005.12
2018-03-18T01:15:08.605Z,96980.56
2018-03-18T01:17:36.861Z,96960.00
2018-03-18T01:20:04.477Z,96952.28
2018-03-18T01:22:32.294Z,96968.28
2018-03-18T01:24:59.889Z,96977.94
2018-03-18T01:27:27.529Z,96975.30
2018-03-18T01:29:55.152Z,96981.96
2018-03-18T01:32:22.745Z,96965.69
2018-03-18T01:34:50.319Z,96957.22
2018-03-18T01:37:18.157Z,96968.17
2018-03-18T01:39:45.742Z,96968.46
2018-03-18T01:42:13.329Z,96952.09
2018-03-18T01:44:40.949Z,96961.86
2018-03-18T01:47:08.531Z,96941.73
2018-03-18T01:49:38.769Z,96943.77
2018-03-18T01:52:06.382Z,96950.36
2018-03-18T01:54:33.962Z,96950.36
2018-03-18T01:57:01.537Z,96944.89
2018-03-18T01:59:29.473Z,96937.70
2018-03-18T02:01:57.061Z,96956.33
2018-03-18T02:04:24.657Z,96984.91
2018-03-18T02:06:52.282Z,96974.48
2018-03-18T02:09:19.885Z,96973.02
2018-03-18T02:11:48.124Z,96977.37
2018-03-18T02:14:15.977Z,96965.93
2018-03-18T02:16:43.570Z,96963.98
2018-03-18T02:19:11.141Z,96956.56
2018-03-18T02:21:39.050Z,96959.09
2018-03-18T02:24:06.630Z,96963.69
2018-03-18T02:26:34.224Z,96958.98
2018-03-18T02:29:01.850Z,96981.36
2018-03-18T02:31:29.506Z,96956.40
2018-03-18T02:33:57.108Z,96953.95
2018-03-18T02:36:25.016Z,96951.34
2018-03-18T02:38:52.585Z,96950.22
2018-03-18T02:41:20.175Z,96945.55
2018-03-18T02:43:47.861Z,96936.43
2018-03-18T02:46:15.442Z,96932.52
2018-03-18T02:48:44.922Z,96930.44
2018-03-18T02:51:13.142Z,96934.39
2018-03-18T02:53:40.712Z,96950.86
2018-03-18T02:56:08.293Z,96948.33
2018-03-18T02:58:35.933Z,96943.65
2018-03-18T03:01:03.528Z,96939.23
2018-03-18T03:03:31.112Z,96941.42
2018-03-18T03:05:58.748Z,96938.83
2018-03-18T03:08:26.327Z,96932.38
2018-03-18T03:10:53.925Z,96924.70
2018-03-18T03:13:21.801Z,96920.71
2018-03-18T03:15:50.517Z,96934.88
2018-03-18T03:18:18.106Z,96946.48
2018-03-18T03:20:46.694Z,96940.45
2018-03-18T03:23:14.296Z,96938.48
2018-03-18T03:25:41.896Z,96928.75
2018-03-18T03:28:09.516Z,96933.20
2018-03-18T03:30:38.063Z,96925.41
2018-03-18T03:33:05.684Z,96959.56
2018-03-18T03:35:33.308Z,96966.45
2018-03-18T03:38:00.966Z,96972.48
2018-03-18T03:40:28.539Z,96984.13
2018-03-18T03:42:56.271Z,96972.26
2018-03-18T03:45:23.848Z,96955.91
2018-03-18T03:47:53.412Z,96955.53
2018-03-18T03:50:21.144Z,96942.80
2018-03-18T03:52:48.725Z,96922.93
2018-03-18T03:55:16.303Z,96929.34
2018-03-18T03:57:44.548Z,96928.24
2018-03-18T04:00:12.281Z,96921.56
2018-03-18T04:02:39.877Z,96925.55
2018-03-18T04:05:07.510Z,96907.52
2018-03-18T04:07:35.083Z,96908.00
2018-03-18T04:10:02.655Z,96915.16
2018-03-18T04:12:30.492Z,96908.19
2018-03-18T04:14:58.071Z,96897.06
2018-03-18T04:17:26.667Z,96883.16
2018-03-18T04:19:54.374Z,96906.09
2018-03-18T04:22:21.968Z,96907.72
2018-03-18T04:24:49.643Z,96909.56
2018-03-18T04:27:17.266Z,96891.07
2018-03-18T04:29:44.868Z,96876.43
2018-03-18T04:32:12.525Z,96880.95
2018-03-18T04:34:40.422Z,96876.91
2018-03-18T04:37:08.008Z,96867.34
2018-03-18T04:39:35.607Z,96864.63
2018-03-18T04:42:05.203Z,96860.23
2018-03-18T04:44:32.792Z,96871.86
2018-03-18T04:47:00.368Z,96880.53
2018-03-18T04:49:27.992Z,96875.31
2018-03-18T04:51:56.340Z,96876.25
2018-03-18T04:54:23.922Z,96862.14
2018-03-18T04:56:52.266Z,96868.41
2018-03-18T04:59:20.438Z,96879.67
2018-03-18T05:01:48.022Z,96873.42
2018-03-18T05:04:15.874Z,96864.54
2018-03-18T05:06:43.466Z,96878.68
2018-03-18T05:09:11.046Z,96877.71
2018-03-18T05:11:39.717Z,96886.70
2018-03-18T05:14:07.360Z,96882.96
2018-03-18T05:16:34.960Z,96880.94
2018-03-18T05:19:03.013Z,96876.89
2018-03-18T05:21:30.650Z,96875.00
2018-03-18T05:23:58.233Z,96878.02
2018-03-18T05:26:25.874Z,96863.81
2018-03-18T05:28:53.486Z,96851.41
2018-03-18T05:31:21.087Z,96844.41
2018-03-18T05:33:48.750Z,96844.83
2018-03-18T05:36:17.149Z,96843.32
2018-03-18T05:38:44.845Z,96821.50
2018-03-18T05:41:12.739Z,96827.02
2018-03-18T05:43:40.318Z,96834.55
2018-03-18T05:46:07.973Z,96852.17
2018-03-18T05:48:35.588Z,96856.45
2018-03-18T05:51:03.198Z,96860.49
2018-03-18T05:53:30.768Z,96859.36
2018-03-18T05:55:58.474Z,96857.37
2018-03-18T05:58:26.058Z,96862.61
2018-03-18T06:00:53.698Z,96872.74
2018-03-18T06:03:21.589Z,96867.94
2018-03-18T06:05:49.169Z,96872.41
2018-03-18T06:08:16.827Z,96888.61
2018-03-18T06:10:45.096Z,96888.75
2018-03-18T06:13:12.778Z,96903.61
2018-03-18T06:15:40.447Z,96904.66
2018-03-18T06:18:08.104Z,96915.17
2018-03-18T06:20:35.856Z,96925.14
2018-03-18T06:23:03.463Z,96925.41
2018-03-18T06:25:31.129Z,96919.52
2018-03-18T06:27:58.864Z,96929.02
2018-03-18T06:30:26.458Z,96943.91
2018-03-18T06:32:54.308Z,96937.11
2018-03-18T06:35:22.444Z,96934.28
2018-03-18T06:37:50.032Z,96935.72
2018-03-18T06:40:17.727Z,96947.76
2018-03-18T06:42:45.301Z,96964.64
2018-03-18T06:45:12.872Z,96938.05
2018-03-18T06:47:40.743Z,96949.11
2018-03-18T06:50:08.361Z,96976.47
2018-03-18T06:52:35.949Z,96958.45
2018-03-18T06:55:03.622Z,96966.35
2018-03-18T06:57:31.205Z,96969.47
2018-03-18T06:59:58.767Z,96972.55
2018-03-18T07:02:26.396Z,96978.61
2018-03-18T07:04:54.027Z,96981.75
2018-03-18T07:07:21.636Z,97013.06
2018-03-18T07:09:49.481Z,97034.02
2018-03-18T07:12:17.063Z,97020.83
2018-03-18T07:14:44.640Z,97014.53
2018-03-18T07:17:12.265Z,96983.69
2018-03-18T07:19:39.866Z,96986.31
2018-03-18T07:22:07.670Z,97009.05
2018-03-18T07:24:35.577Z,97030.34
2018-03-18T07:27:03.178Z,97047.61
2018-03-18T07:29:31.602Z,97044.35
2018-03-18T07:31:59.243Z,97007.27
2018-03-18T07:34:26.816Z,97014.42
2018-03-18T07:36:54.436Z,97010.77
2018-03-18T07:39:22.071Z,97007.03
2018-03-18T07:41:49.710Z,97018.61
2018-03-18T07:44:17.305Z,97013.96
2018-03-18T07:46:44.993Z,97004.70
2018-03-18T07:49:13.529Z,97013.75
2018-03-18T07:51:43.242Z,97012.52
2018-03-18T07:54:10.886Z,97006.23
2018-03-18T07:56:38.459Z,96985.27
2018-03-18T07:59:06.028Z,96977.73
2018-03-18T08:01:33.662Z,96982.28
2018-03-18T08:04:01.252Z,96978.08
2018-03-18T08:06:28.897Z,96971.56
2018-03-18T08:08:56.598Z,96969.56
2018-03-18T08:11:24.169Z,96964.20
2018-03-18T08:13:52.092Z,96978.72
2018-03-18T08:16:19.716Z,96971.27
2018-03-18T08:18:47.310Z,96961.92
2018-03-18T08:21:14.970Z,96953.47
2018-03-18T08:23:42.942Z,96966.42
2018-03-18T08:26:10.525Z,96960.62
2018-03-18T08:28:38.113Z,96970.86
2018-03-18T08:31:05.988Z,96966.65
2018-03-18T08:33:33.588Z,96991.61
2018-03-18T08:36:01.175Z,96996.00
2018-03-18T08:38:28.791Z,96994.38
2018-03-18T08:40:56.417Z,97012.45
2018-03-18T08:43:24.004Z,97009.19
2018-03-18T08:45:51.628Z,97014.62
2018-03-18T08:48:19.204Z,97005.13
2018-03-18T08:50:46.839Z,96984.58
2018-03-18T08:53:14.502Z,96971.53
2018-03-18T08:55:43.064Z,96967.72
2018-03-18T08:58:10.716Z,96961.70
2018-03-18T09:00:38.372Z,96937.66
2018-03-18T09:03:05.948Z,96963.95
2018-03-18T09:05:33.599Z,96972.78
2018-03-18T09:08:01.239Z,96985.40
2018-03-18T09:10:28.815Z,97007.63
2018-03-18T09:12:56.423Z,97013.27
2018-03-18T09:15:24.166Z,96994.19
2018-03-18T09:17:51.742Z,97000.78
2018-03-18T09:20:19.366Z,96988.67
2018-03-18T09:22:46.988Z,96993.36
2018-03-18T09:25:14.656Z,96997.00
2018-03-18T09:27:42.328Z,97000.26
2018-03-18T09:30:10.036Z,96999.20
2018-03-18T09:32:37.663Z,96995.54
2018-03-18T09:35:05.298Z,96994.83
2018-03-18T09:37:33.155Z,97007.73
2018-03-18T09:40:00.845Z,97003.41
2018-03-18T09:42:28.429Z,96999.22
2018-03-18T09:44:56.076Z,97010.95
2018-03-18T09:47:23.671Z,97009.75
2018-03-18T09:49:51.264Z,97005.27
2018-03-18T09:52:18.962Z,97017.48
2018-03-18T09:54:46.553Z,97016.22
2018-03-18T09:57:14.148Z,97014.02
2018-03-18T09:59:41.866Z,97002.31
2018-03-18T10:02:09.445Z,97009.58
2018-03-18T10:04:37.078Z,97013.56
2018-03-18T10:07:04.724Z,97005.31
2018-03-18T10:09:32.303Z,97011.24
2018-03-18T10:11:59.912Z,97011.91
2018-03-18T10:14:27.728Z,97011.05
2018-03-18T10:16:55.371Z,97007.32
2018-03-18T10:19:22.958Z,97014.27
2018-03-18T10:21:50.593Z,97015.58
2018-03-18T10:24:18.245Z,97017.25
2018-03-18T10:26:46.085Z,96997.36
2018-03-18T10:29:13.755Z,97002.97
2018-03-18T10:31:41.359Z,97013.59
2018-03-18T10:34:09.009Z,97013.09
2018-03-18T10:36:36.631Z,97015.52
2018-03-18T10:39:05.240Z,97017.99
2018-03-18T10:41:32.890Z,97019.91
2018-03-18T10:44:00.539Z,97021.02
2018-03-18T10:46:28.104Z,97030.41
2018-03-18T10:48:55.701Z,97024.33
2018-03-18T10:51:23.582Z,97019.99
2018-03-18T10:53:51.171Z,97020.72
2018-03-18T10:56:18.820Z,97018.84
2018-03-18T10:58:46.462Z,97010.12
2018-03-18T11:01:19.572Z,97004.49
2018-03-18T11:06:44.541Z,96987.34
2018-03-18T11:09:13.150Z,96979.70
2018-03-18T11:11:40.987Z,96976.19
2018-03-18T11:14:13.827Z,96971.47
2018-03-18T11:16:49.973Z,96959.73
2018-03-18T11:19:28.964Z,96950.73
2018-03-18T11:34:23.970Z,96955.59
2018-03-18T11:36:51.610Z,96965.97
2018-03-18T11:39:19.273Z,96976.63
2018-03-18T11:41:46.913Z,96973.92
2018-03-18T11:44:14.586Z,96967.81
2018-03-18T11:46:42.295Z,96984.20
2018-03-18T11:49:09.925Z,96983.55
2018-03-18T11:51:37.666Z,96978.22
2018-03-18T11:54:05.292Z,96968.27
2018-03-18T11:56:32.881Z,96973.31
2018-03-18T11:59:00.720Z,96985.34
2018-03-18T12:01:28.369Z,96976.80
2018-03-18T12:03:55.966Z,96975.55
2018-03-18T12:06:23.827Z,96971.89
2018-03-18T12:09:00.275Z,96969.03
2018-03-18T12:11:27.912Z,96969.86
2018-03-18T12:13:55.512Z,96967.02
2018-03-18T12:16:23.105Z,96967.27
2018-03-18T12:18:50.813Z,96971.48
2018-03-18T12:21:18.398Z,96965.45
2018-03-18T12:23:45.990Z,96965.67
2018-03-18T12:26:13.639Z,96968.27
2018-03-18T12:28:41.566Z,96964.41
2018-03-18T12:31:09.132Z,96970.31
2018-03-18T12:33:37.141Z,96973.00
2018-03-18T12:36:04.782Z,96978.44
2018-03-18T12:38:32.379Z,96983.05
2018-03-18T12:41:00.256Z,96991.09
2018-03-18T12:43:29.636Z,96996.96
2018-03-18T12:45:57.288Z,97005.79
2018-03-18T12:48:24.956Z,97014.50
2018-03-18T12:50:52.650Z,97010.93
2018-03-18T12:53:20.336Z,97019.03
2018-03-18T12:55:48.021Z,97023.33
2018-03-18T12:58:15.668Z,97023.11
2018-03-18T13:00:43.329Z,97020.90
2018-03-18T13:03:11.367Z,97036.58
2018-03-18T13:05:38.960Z,97041.23
2018-03-18T13:08:06.540Z,97046.46
2018-03-18T13:10:34.180Z,97047.86
2018-03-18T13:13:01.775Z,97053.39
2018-03-18T13:15:29.363Z,97055.80
2018-03-18T13:17:58.010Z,97056.06
2018-03-18T13:20:25.628Z,97061.40
2018-03-18T13:22:53.209Z,97063.14
2018-03-18T13:25:20.853Z,97070.73
2018-03-18T13:27:48.448Z,97078.09
2018-03-18T13:30:16.141Z,97089.64
2018-03-18T13:32:43.992Z,97099.92
2018-03-18T13:35:11.573Z,97095.61
2018-03-18T13:37:39.180Z,97082.66
2018-03-18T13:40:06.802Z,97092.82
2018-03-18T13:42:34.424Z,97083.85
2018-03-18T13:45:02.006Z,97074.44
2018-03-18T13:47:29.715Z,97081.83
2018-03-18T13:49:57.327Z,97087.15
2018-03-18T13:52:24.946Z,97094.77
2018-03-18T13:54:52.572Z,97091.34
2018-03-18T13:57:20.168Z,97094.07
2018-03-18T13:59:47.758Z,97098.48
2018-03-18T14:02:15.412Z,97100.03
2018-03-18T14:04:43.008Z,97098.63
2018-03-18T14:07:10.618Z,97082.53
2018-03-18T14:09:39.672Z,97077.81
2018-03-18T14:12:07.276Z,97072.05
2018-03-18T14:14:34.942Z,97072.87
2018-03-18T14:17:02.574Z,97079.66
2018-03-18T14:19:30.178Z,97080.28
2018-03-18T14:21:57.805Z,97065.83
2018-03-18T14:24:25.792Z,97052.09
2018-03-18T14:26:53.527Z,97043.31
2018-03-18T14:29:21.115Z,97019.09
2018-03-18T14:31:48.856Z,96993.72
2018-03-18T14:34:16.442Z,96989.68
2018-03-18T14:36:44.042Z,97007.08
2018-03-18T14:39:11.690Z,97022.32
2018-03-18T14:41:39.337Z,97019.95
2018-03-18T14:44:07.852Z,97026.42
2018-03-18T14:46:35.502Z,97034.51
2018-03-18T14:49:03.118Z,97037.97
2018-03-18T14:51:30.709Z,97038.52
2018-03-18T14:53:58.378Z,97038.20
2018-03-18T14:56:25.993Z,97042.36
2018-03-18T14:58:54.049Z,97044.02
2018-03-18T15:01:21.698Z,97049.19
2018-03-18T15:03:49.293Z,97060.03
2018-03-18T15:06:16.877Z,97060.91
2018-03-18T15:08:44.802Z,97061.81
2018-03-18T15:11:13.372Z,97070.55
2018-03-18T15:13:40.968Z,97082.36
2018-03-18T15:16:08.615Z,97094.57
2018-03-18T15:18:36.205Z,97100.30
2018-03-18T15:21:03.862Z,97105.37
2018-03-18T15:23:31.517Z,97114.44
2018-03-18T15:25:59.095Z,97121.17
2018-03-18T15:28:26.676Z,97131.84
2018-03-18T15:30:54.372Z,97127.52
2018-03-18T15:33:22.159Z,97132.77
2018-03-18T15:35:49.730Z,97142.57
2018-03-18T15:38:17.363Z,97157.94
2018-03-18T15:40:44.959Z,97165.13
2018-03-18T15:43:13.137Z,97174.99
2018-03-18T15:45:41.026Z,97188.36
2018-03-18T15:48:08.606Z,97198.84
2018-03-18T15:50:36.180Z,97209.28
2018-03-18T15:53:04.103Z,97208.06
2018-03-18T15:55:31.737Z,97223.19
2018-03-18T15:57:59.331Z,97227.58
2018-03-18T16:00:27.007Z,97240.89
2018-03-18T16:02:54.634Z,97258.20
2018-03-18T16:05:22.324Z,97253.44
2018-03-18T16:07:49.958Z,97253.77
2018-03-18T16:10:17.599Z,97254.59
2018-03-18T16:12:45.173Z,97258.61
2018-03-18T16:15:12.865Z,97264.87
2018-03-18T16:17:40.478Z,97266.61
2018-03-18T16:20:08.066Z,97271.92
2018-03-18T16:22:35.717Z,97272.09
2018-03-18T16:25:03.348Z,97279.84
2018-03-18T16:27:30.937Z,97280.84
2018-03-18T16:30:10.521Z,97286.88
2018-03-18T16:32:38.202Z,97288.34
2018-03-18T16:35:05.881Z,97290.83
2018-03-18T16:37:33.589Z,97292.72
2018-03-18T16:40:01.790Z,97295.95
2018-03-18T16:42:29.377Z,97303.67
2018-03-18T16:44:57.162Z,97300.33
2018-03-18T16:47:26.002Z,97308.05
2018-03-18T16:49:53.842Z,97312.39
2018-03-18T16:52:21.623Z,97310.16
2018-03-18T16:54:49.596Z,97309.42
2018-03-18T16:57:17.487Z,97313.34
2018-03-18T16:59:45.434Z,97309.00
2018-03-18T17:02:13.446Z,97313.30
2018-03-18T17:04:41.366Z,97323.94
2018-03-18T17:07:09.535Z,97327.22
2018-03-18T17:09:37.499Z,97333.75
2018-03-18T17:12:05.412Z,97340.12
2018-03-18T17:14:34.204Z,97349.97
2018-03-18T17:17:02.179Z,97367.80
2018-03-18T17:19:30.081Z,97365.39
2018-03-18T17:21:58.030Z,97369.08
2018-03-18T17:24:25.916Z,97373.25
2018-03-18T17:26:53.786Z,97380.75
2018-03-18T17:29:21.725Z,97390.80
2018-03-18T17:31:49.614Z,97395.64
2018-03-18T17:34:17.543Z,97398.52
2018-03-18T17:36:45.535Z,97401.56
2018-03-18T17:39:14.057Z,97408.80
2018-03-18T17:41:41.981Z,97420.92
2018-03-18T17:44:10.191Z,97418.67
2018-03-18T17:46:50.014Z,97424.75
2018-03-18T17:49:29.862Z,97418.16
2018-03-18T17:52:09.588Z,97419.77
2018-03-18T17:54:49.282Z,97419.70
2018-03-18T17:57:17.267Z,97424.96
2018-03-18T17:59:45.157Z,97436.44
2018-03-18T18:02:13.135Z,97441.13
2018-03-18T18:04:41.051Z,97439.95
2018-03-18T18:07:09.025Z,97446.30
2018-03-18T18:09:37.034Z,97441.93
2018-03-18T18:12:04.982Z,97448.83
2018-03-18T18:14:32.870Z,97453.82
2018-03-18T18:17:01.173Z,97459.03
2018-03-18T18:19:29.096Z,97462.25
2018-03-18T18:21:56.998Z,97469.33
2018-03-18T18:24:24.908Z,97467.67
2018-03-18T18:26:54.418Z,97471.41
2018-03-18T18:29:22.303Z,97472.95
2018-03-18T18:31:50.280Z,97470.37
2018-03-18T18:34:18.200Z,97467.67
2018-03-18T18:36:46.253Z,97472.73
2018-03-18T18:39:14.183Z,97479.06
2018-03-18T18:41:42.099Z,97483.13
2018-03-18T18:44:10.017Z,97482.69
2018-03-18T18:46:37.944Z,97479.48
2018-03-18T18:49:05.878Z,97489.59
2018-03-18T18:51:33.819Z,97491.23
2018-03-18T18:54:02.004Z,97497.25
2018-03-18T18:56:29.889Z,97485.52
2018-03-18T18:58:57.789Z,97491.79
2018-03-18T19:01:25.737Z,97488.05
2018-03-18T19:03:53.631Z,97493.09
2018-03-18T19:06:21.523Z,97496.27
2018-03-18T19:08:49.868Z,97506.38
2018-03-18T19:11:17.883Z,97508.75
2018-03-18T19:13:45.767Z,97512.20
2018-03-18T19:16:13.732Z,97517.46
2018-03-18T19:18:41.676Z,97525.27
2018-03-18T19:21:09.540Z,97519.74
2018-03-18T19:23:37.476Z,97539.34
2018-03-18T19:26:05.406Z,97538.17
2018-03-18T19:28:33.283Z,97546.23
2018-03-18T19:31:01.199Z,97556.57
2018-03-18T19:33:29.065Z,97569.36
2018-03-18T19:35:56.937Z,97578.42
2018-03-18T19:38:24.983Z,97582.45
2018-03-18T19:40:53.638Z,97581.34
2018-03-18T19:43:22.105Z,97588.70
2018-03-18T19:45:50.034Z,97581.40
2018-03-18T19:48:17.944Z,97583.55
2018-03-18T19:50:45.904Z,97586.39
2018-03-18T19:53:13.834Z,97587.90
2018-03-18T19:55:41.796Z,97594.59
2018-03-18T19:58:09.680Z,97592.91
2018-03-18T20:00:37.694Z,97598.11
2018-03-18T20:03:05.582Z,97613.86
2018-03-18T20:05:33.514Z,97615.12
2018-03-18T20:08:01.689Z,97615.45
2018-03-18T20:10:29.613Z,97610.86
2018-03-18T20:12:57.495Z,97630.08
2018-03-18T20:15:25.740Z,97640.75
2018-03-18T20:17:56.456Z,97648.50
2018-03-18T20:20:24.363Z,97649.30
2018-03-18T20:22:52.315Z,97643.61
2018-03-18T20:25:20.166Z,97644.30
2018-03-18T20:27:48.057Z,97638.12
2018-03-18T20:30:16.033Z,97641.45
2018-03-18T20:32:43.912Z,97654.33
2018-03-18T20:35:11.867Z,97648.27
2018-03-18T20:37:39.811Z,97631.64
2018-03-18T20:40:07.961Z,97624.55
2018-03-18T20:42:35.857Z,97618.72
2018-03-18T20:45:04.026Z,97626.30
2018-03-18T20:47:31.859Z,97645.64
2018-03-18T20:49:59.751Z,97649.75
2018-03-18T20:52:27.726Z,97658.73
2018-03-18T20:54:55.596Z,97659.53
2018-03-18T20:57:23.541Z,97656.92
2018-03-18T20:59:51.451Z,97650.34
2018-03-18T21:02:19.325Z,97652.38
2018-03-18T21:04:47.198Z,97661.78
2018-03-18T21:07:15.093Z,97667.83
2018-03-18T21:09:42.846Z,97675.72
2018-03-18T21:12:10.665Z,97681.22
2018-03-18T21:14:38.540Z,97685.35
2018-03-18T21:17:06.228Z,97694.71
2018-03-18T21:19:33.909Z,97695.05
2018-03-18T21:22:01.722Z,97702.98
2018-03-18T21:24:29.359Z,97699.77
2018-03-18T21:26:57.021Z,97693.04
2018-03-18T21:29:24.773Z,97687.19
2018-03-18T21:31:52.378Z,97688.10
2018-03-18T21:34:20.028Z,97687.65
2018-03-18T21:36:47.661Z,97684.98
2018-03-18T21:39:15.227Z,97695.80
2018-03-18T21:41:43.046Z,97707.12
2018-03-18T21:44:10.681Z,97716.29
2018-03-18T21:46:38.320Z,97718.00
2018-03-18T21:49:05.900Z,97719.28
2018-03-18T21:51:33.537Z,97724.98
2018-03-18T21:54:01.093Z,97716.45
2018-03-18T21:56:28.714Z,97709.02
2018-03-18T21:58:56.416Z,97709.80
2018-03-18T22:01:24.040Z,97705.27
2018-03-18T22:03:51.602Z,97706.52
2018-03-18T22:06:19.434Z,97708.88
2018-03-18T22:08:47.019Z,97710.17
2018-03-18T22:11:14.594Z,97712.48
2018-03-18T22:13:42.232Z,97718.22
2018-03-18T22:16:09.808Z,97721.34
2018-03-18T22:18:37.409Z,97718.58
2018-03-18T22:21:05.119Z,97726.38
2018-03-18T22:23:32.694Z,97727.98
2018-03-18T22:26:00.272Z,97731.58
2018-03-18T22:28:27.924Z,97734.98
2018-03-18T22:30:55.511Z,97745.25
2018-03-18T22:33:23.090Z,97749.50
2018-03-18T22:35:50.986Z,97742.71
2018-03-18T22:38:18.561Z,97743.31
2018-03-18T22:40:46.816Z,97735.63
2018-03-18T22:43:14.601Z,97742.80
2018-03-18T22:45:42.182Z,97745.58
2018-03-18T22:48:09.736Z,97744.74
2018-03-18T22:50:37.370Z,97755.66
2018-03-18T22:53:04.946Z,97751.47
2018-03-18T22:55:32.524Z,97764.63
2018-03-18T22:58:00.222Z,97757.88
2018-03-18T23:00:27.857Z,97747.65
2018-03-18T23:02:55.502Z,97745.87
2018-03-18T23:05:23.351Z,97743.03
2018-03-18T23:07:50.988Z,97746.30
2018-03-18T23:10:18.613Z,97743.80
2018-03-18T23:12:46.241Z,97745.69
2018-03-18T23:15:13.817Z,97749.40
2018-03-18T23:17:41.480Z,97750.83
2018-03-18T23:20:09.098Z,97756.03
2018-03-18T23:22:36.745Z,97760.78
2018-03-18T23:25:04.347Z,97761.46
2018-03-18T23:27:32.009Z,97754.84
2018-03-18T23:29:59.582Z,97760.12
2018-03-18T23:32:27.210Z,97767.80
2018-03-18T23:34:54.930Z,97778.48
2018-03-18T23:37:22.506Z,97772.48
2018-03-18T23:39:50.085Z,97774.08
2018-03-18T23:42:17.733Z,97770.19
2018-03-18T23:44:45.809Z,97766.71
2018-03-18T23:47:13.392Z,97771.71
2018-03-18T23:49:41.031Z,97763.97
2018-03-18T23:52:08.596Z,97766.67
2018-03-18T23:54:36.228Z,97757.72
2018-03-18T23:57:03.873Z,97756.11
2018-03-18T23:59:31.464Z,97758.29
